createdAt,value
2023-04-09T00:01:22.489Z,100017.42
2023-04-09T00:03:50.868Z,100020.26
2023-04-09T00:06:19.385Z,100016.11
2023-04-09T00:08:47.398Z,100019.30
2023-04-09T00:11:23.514Z,100016.91
2023-04-09T00:13:52.460Z,100019.42
2023-04-09T00:16:20.750Z,100021.91
2023-04-09T00:18:49.104Z,100017.77
2023-04-09T00:21:17.438Z,100018.67
2023-04-09T00:23:45.495Z,100011.73
2023-04-09T00:26:13.506Z,100011.04
2023-04-09T00:28:42.141Z,100009.14
2023-04-09T00:31:10.951Z,100009.84
2023-04-09T00:33:39.705Z,100006.52
2023-04-09T00:36:09.320Z,100007.76
2023-04-09T00:38:37.615Z,100007.95
2023-04-09T00:41:07.480Z,100014.70
2023-04-09T00:43:36.668Z,100013.19
2023-04-09T00:46:04.745Z,100015.16
2023-04-09T00:48:34.955Z,100015.59
2023-04-09T00:51:03.013Z,100017.42
2023-04-09T00:53:32.138Z,100013.14
2023-04-09T00:56:00.201Z,100013.56
2023-04-09T00:58:33.532Z,100013.13
2023-04-09T01:01:02.355Z,100010.55
2023-04-09T01:03:32.070Z,100014.08
2023-04-09T01:06:06.387Z,100015.51
2023-04-09T01:08:56.437Z,100010.09
2023-04-09T01:11:46.657Z,100009.77
2023-04-09T01:14:16.442Z,100010.12
2023-04-09T01:16:48.355Z,100019.04
2023-04-09T01:19:31.879Z,100018.92
2023-04-09T01:21:59.906Z,100017.95
2023-04-09T01:24:42.874Z,100015.89
2023-04-09T01:27:12.537Z,100016.05
2023-04-09T01:29:53.038Z,100014.63
2023-04-09T01:32:21.098Z,100017.06
2023-04-09T01:34:50.899Z,100020.25
2023-04-09T01:37:19.062Z,100018.02
2023-04-09T01:39:47.417Z,100016.67
2023-04-09T01:42:16.029Z,100018.23
2023-04-09T01:44:44.212Z,100016.52
2023-04-09T01:47:12.501Z,100017.96
2023-04-09T01:49:41.702Z,100017.64
2023-04-09T01:52:10.127Z,100018.59
2023-04-09T01:54:38.242Z,100014.22
2023-04-09T01:57:06.477Z,100013.50
2023-04-09T01:59:34.848Z,100008.10
2023-04-09T02:02:15.469Z,100013.31
2023-04-09T02:04:46.466Z,100017.14
2023-04-09T02:07:33.290Z,100017.73
2023-04-09T02:10:01.981Z,100021.47
2023-04-09T02:12:30.338Z,100023.64
2023-04-09T02:15:01.648Z,100027.20
2023-04-09T02:17:30.301Z,100025.83
2023-04-09T02:19:58.674Z,100023.94
2023-04-09T02:22:26.669Z,100026.56
2023-04-09T02:24:55.200Z,100030.64
2023-04-09T02:27:23.226Z,100031.74
2023-04-09T02:29:52.076Z,100032.33
2023-04-09T02:32:20.553Z,100033.94
2023-04-09T02:34:51.391Z,100033.81
2023-04-09T02:37:19.453Z,100035.23
2023-04-09T02:39:48.475Z,100033.70
2023-04-09T02:42:16.476Z,100036.39
2023-04-09T02:44:44.817Z,100039.77
2023-04-09T02:47:20.273Z,100033.74
2023-04-09T02:49:50.066Z,100032.39
2023-04-09T02:52:20.403Z,100031.62
2023-04-09T02:54:48.683Z,100034.33
2023-04-09T02:57:17.189Z,100032.13
2023-04-09T02:59:47.372Z,100031.66
2023-04-09T03:02:15.615Z,100033.11
2023-04-09T03:04:43.840Z,100036.15
2023-04-09T03:07:11.913Z,100034.48
2023-04-09T03:09:45.440Z,100037.98
2023-04-09T03:12:13.683Z,100039.45
2023-04-09T03:14:42.046Z,100044.71
2023-04-09T03:17:12.576Z,100040.25
2023-04-09T03:19:40.949Z,100038.88
2023-04-09T03:22:09.519Z,100038.17
2023-04-09T03:24:37.917Z,100040.05
2023-04-09T03:27:07.246Z,100039.16
2023-04-09T03:29:35.416Z,100038.61
2023-04-09T03:32:03.938Z,100038.08
2023-04-09T03:34:32.443Z,100035.63
2023-04-09T03:37:00.641Z,100038.39
2023-04-09T03:39:33.071Z,100037.66
2023-04-09T03:42:07.701Z,100039.58
2023-04-09T03:44:44.044Z,100038.40
2023-04-09T03:47:16.364Z,100035.96
2023-04-09T03:49:46.428Z,100037.85
2023-04-09T03:52:24.722Z,100040.58
2023-04-09T03:55:03.416Z,100036.91
2023-04-09T03:57:31.616Z,100034.05
2023-04-09T04:00:01.454Z,100033.41
2023-04-09T04:02:36.501Z,100035.90
2023-04-09T04:05:06.575Z,100036.82
2023-04-09T04:07:38.181Z,100041.00
2023-04-09T04:10:13.720Z,100042.80
2023-04-09T04:12:45.011Z,100042.91
2023-04-09T04:15:28.284Z,100044.89
2023-04-09T04:17:57.018Z,100043.55
2023-04-09T04:20:46.857Z,100047.02
2023-04-09T04:23:35.504Z,100047.55
2023-04-09T04:26:15.846Z,100053.20
2023-04-09T04:28:44.431Z,100054.42
2023-04-09T04:31:16.037Z,100057.25
2023-04-09T04:33:46.801Z,100057.66
2023-04-09T04:36:16.250Z,100061.79
2023-04-09T04:38:53.560Z,100058.98
2023-04-09T04:41:29.710Z,100059.45
2023-04-09T04:44:07.918Z,100057.09
2023-04-09T04:46:36.197Z,100059.59
2023-04-09T04:49:04.214Z,100062.07
2023-04-09T04:51:32.921Z,100062.62
2023-04-09T04:54:09.407Z,100063.69
2023-04-09T04:56:37.616Z,100067.39
2023-04-09T04:59:17.222Z,100066.39
2023-04-09T05:01:51.156Z,100071.27
2023-04-09T05:04:19.368Z,100075.65
2023-04-09T05:06:56.600Z,100074.30
2023-04-09T05:09:25.455Z,100073.84
2023-04-09T05:12:18.174Z,100076.66
2023-04-09T05:14:49.796Z,100081.31
2023-04-09T05:17:17.862Z,100084.69
2023-04-09T05:19:53.827Z,100086.84
2023-04-09T05:22:27.254Z,100086.73
2023-04-09T05:24:57.044Z,100088.06
2023-04-09T05:27:27.698Z,100084.29
2023-04-09T05:30:01.626Z,100085.92
2023-04-09T05:32:34.370Z,100087.76
2023-04-09T05:35:02.958Z,100087.64
2023-04-09T05:37:32.065Z,100087.55
2023-04-09T05:40:00.189Z,100085.89
2023-04-09T05:42:28.664Z,100083.53
2023-04-09T05:45:16.996Z,100083.55
2023-04-09T05:47:51.857Z,100083.39
2023-04-09T05:50:23.028Z,100084.38
2023-04-09T05:52:59.709Z,100087.38
2023-04-09T05:55:34.204Z,100092.11
2023-04-09T05:58:02.505Z,100092.04
2023-04-09T06:00:34.604Z,100093.02
2023-04-09T06:03:04.877Z,100090.26
2023-04-09T06:05:33.364Z,100090.84
2023-04-09T06:08:01.757Z,100092.66
2023-04-09T06:10:32.975Z,100093.56
2023-04-09T06:13:01.043Z,100096.77
2023-04-09T06:15:38.346Z,100096.53
2023-04-09T06:18:06.938Z,100096.42
2023-04-09T06:20:35.731Z,100101.79
2023-04-09T06:23:07.465Z,100100.67
2023-04-09T06:25:36.791Z,100102.46
2023-04-09T06:28:05.046Z,100108.59
2023-04-09T06:30:37.543Z,100109.07
2023-04-09T06:33:06.432Z,100107.19
2023-04-09T06:35:34.521Z,100109.14
2023-04-09T06:38:03.649Z,100110.35
2023-04-09T06:40:32.675Z,100111.77
2023-04-09T06:43:00.835Z,100108.83
2023-04-09T06:45:33.602Z,100111.16
2023-04-09T06:48:01.983Z,100110.98
2023-04-09T06:50:39.129Z,100109.12
2023-04-09T06:53:07.273Z,100106.22
2023-04-09T06:55:35.380Z,100107.58
2023-04-09T06:58:08.530Z,100111.98
2023-04-09T07:00:37.544Z,100107.11
2023-04-09T07:03:18.514Z,100114.41
2023-04-09T07:05:47.329Z,100113.47
2023-04-09T07:08:15.742Z,100115.70
2023-04-09T07:10:52.811Z,100113.46
2023-04-09T07:13:22.959Z,100109.14
2023-04-09T07:15:51.320Z,100112.30
2023-04-09T07:18:20.879Z,100106.73
2023-04-09T07:20:49.985Z,100106.20
2023-04-09T07:23:18.004Z,100107.55
2023-04-09T07:25:48.408Z,100108.86
2023-04-09T07:28:16.537Z,100107.80
2023-04-09T07:30:46.368Z,100106.95
2023-04-09T07:33:14.530Z,100107.23
2023-04-09T07:35:43.677Z,100111.73
2023-04-09T07:38:11.894Z,100108.11
2023-04-09T07:40:41.585Z,100106.52
2023-04-09T07:43:09.849Z,100103.34
2023-04-09T07:45:37.845Z,100103.15
2023-04-09T07:48:06.247Z,100108.31
2023-04-09T07:50:34.948Z,100104.52
2023-04-09T07:53:03.386Z,100104.64
2023-04-09T07:55:32.248Z,100103.66
2023-04-09T07:58:00.271Z,100100.42
2023-04-09T08:00:32.924Z,100095.29
2023-04-09T08:03:04.163Z,100096.91
2023-04-09T08:05:32.716Z,100093.41
2023-04-09T08:08:06.274Z,100095.93
2023-04-09T08:10:34.496Z,100090.57
2023-04-09T08:13:02.602Z,100091.77
2023-04-09T08:15:38.319Z,100098.19
2023-04-09T08:18:07.502Z,100095.12
2023-04-09T08:20:35.582Z,100093.91
2023-04-09T08:23:03.645Z,100096.64
2023-04-09T08:25:32.036Z,100095.29
2023-04-09T08:28:00.518Z,100094.73
2023-04-09T08:30:29.417Z,100090.73
2023-04-09T08:32:58.505Z,100085.02
2023-04-09T08:35:26.661Z,100088.35
2023-04-09T08:37:56.920Z,100090.39
2023-04-09T08:40:25.456Z,100095.42
2023-04-09T08:42:57.048Z,100091.19
2023-04-09T08:45:25.212Z,100092.39
2023-04-09T08:47:53.333Z,100089.10
2023-04-09T08:50:22.328Z,100085.94
2023-04-09T08:52:50.430Z,100081.90
2023-04-09T08:55:20.631Z,100079.36
2023-04-09T08:57:48.709Z,100077.23
2023-04-09T09:00:17.160Z,100069.35
2023-04-09T09:03:11.692Z,100072.80
2023-04-09T09:05:44.327Z,100073.35
2023-04-09T09:08:22.997Z,100074.50
2023-04-09T09:10:51.140Z,100075.30
2023-04-09T09:13:25.955Z,100072.26
2023-04-09T09:15:57.285Z,100075.64
2023-04-09T09:18:38.651Z,100073.08
2023-04-09T09:21:13.614Z,100070.96
2023-04-09T09:23:42.881Z,100074.46
2023-04-09T09:26:21.907Z,100068.80
2023-04-09T09:28:50.855Z,100066.66
2023-04-09T09:31:20.608Z,100058.50
2023-04-09T09:33:50.584Z,100056.31
2023-04-09T09:36:34.827Z,100054.45
2023-04-09T09:39:10.232Z,100050.91
2023-04-09T09:41:46.078Z,100051.52
2023-04-09T09:44:32.021Z,100046.88
2023-04-09T09:47:00.769Z,100047.62
2023-04-09T09:49:29.194Z,100047.40
2023-04-09T09:51:57.995Z,100047.58
2023-04-09T09:54:34.917Z,100045.91
2023-04-09T09:57:04.810Z,100041.61
2023-04-09T09:59:33.830Z,100041.55
2023-04-09T10:02:11.176Z,100042.45
2023-04-09T10:04:40.698Z,100038.42
2023-04-09T10:07:16.288Z,100034.93
2023-04-09T10:09:47.077Z,100030.14
2023-04-09T10:12:15.209Z,100029.25
2023-04-09T10:14:43.273Z,100029.75
2023-04-09T10:17:12.193Z,100025.70
2023-04-09T10:19:42.959Z,100028.27
2023-04-09T10:22:12.426Z,100031.81
2023-04-09T10:24:41.006Z,100031.92
2023-04-09T10:27:12.125Z,100030.92
2023-04-09T10:29:48.806Z,100026.02
2023-04-09T10:32:26.496Z,100024.75
2023-04-09T10:35:14.690Z,100029.31
2023-04-09T10:37:42.857Z,100027.14
2023-04-09T10:40:20.524Z,100019.73
2023-04-09T10:42:49.412Z,100016.02
2023-04-09T10:45:23.083Z,100013.14
2023-04-09T10:47:53.771Z,100010.31
2023-04-09T10:50:32.688Z,100010.05
2023-04-09T10:53:02.746Z,100015.45
2023-04-09T10:55:42.561Z,100012.67
2023-04-09T10:58:13.559Z,100013.27
2023-04-09T11:00:46.952Z,100012.73
2023-04-09T11:03:27.780Z,100010.98
2023-04-09T11:06:10.271Z,100001.16
2023-04-09T11:08:39.486Z,99998.08
2023-04-09T11:11:07.725Z,99995.30
2023-04-09T11:13:41.836Z,99995.66
2023-04-09T11:16:22.800Z,99993.80
2023-04-09T11:19:03.094Z,99991.77
2023-04-09T11:21:37.988Z,99986.10
2023-04-09T11:24:09.485Z,99983.41
2023-04-09T11:26:44.086Z,99981.35
2023-04-09T11:29:15.150Z,99982.89
2023-04-09T11:31:49.672Z,99980.38
2023-04-09T11:34:37.943Z,99977.73
2023-04-09T11:37:09.423Z,99974.61
2023-04-09T11:39:41.023Z,99970.23
2023-04-09T11:42:13.698Z,99963.89
2023-04-09T11:44:47.123Z,99959.83
2023-04-09T11:47:31.812Z,99954.33
2023-04-09T11:50:03.049Z,99950.60
2023-04-09T11:52:36.860Z,99950.84
2023-04-09T11:55:09.632Z,99949.46
2023-04-09T11:57:50.675Z,99948.25
2023-04-09T12:00:21.090Z,99942.08
2023-04-09T12:03:04.985Z,99944.46
2023-04-09T12:05:57.109Z,99944.51
2023-04-09T12:08:25.519Z,99947.63
2023-04-09T12:11:09.350Z,99943.96
2023-04-09T12:13:44.765Z,99941.85
2023-04-09T12:16:14.365Z,99934.30
2023-04-09T12:19:09.021Z,99936.71
2023-04-09T12:21:58.578Z,99933.95
2023-04-09T12:24:28.253Z,99924.59
2023-04-09T12:27:01.763Z,99924.97
2023-04-09T12:29:30.928Z,99930.49
2023-04-09T12:31:59.316Z,99928.27
2023-04-09T12:34:27.770Z,99927.96
2023-04-09T12:36:56.204Z,99929.85
2023-04-09T12:39:24.270Z,99926.67
2023-04-09T12:42:01.200Z,99918.75
2023-04-09T12:44:33.192Z,99919.20
2023-04-09T12:47:02.851Z,99916.10
2023-04-09T12:49:33.781Z,99912.39
2023-04-09T12:52:02.336Z,99915.18
2023-04-09T12:54:31.588Z,99913.85
2023-04-09T12:57:02.314Z,99917.36
2023-04-09T12:59:32.594Z,99912.81
2023-04-09T13:02:02.376Z,99915.40
2023-04-09T13:04:33.939Z,99912.00
2023-04-09T13:07:03.358Z,99913.22
2023-04-09T13:09:35.325Z,99916.22
2023-04-09T13:12:03.888Z,99917.35
2023-04-09T13:14:32.191Z,99916.78
2023-04-09T13:17:00.398Z,99914.91
2023-04-09T13:19:31.370Z,99917.72
2023-04-09T13:21:59.539Z,99917.80
2023-04-09T13:24:27.935Z,99916.98
2023-04-09T13:26:56.892Z,99914.44
2023-04-09T13:29:29.364Z,99914.74
2023-04-09T13:32:11.383Z,99915.11
2023-04-09T13:34:40.632Z,99909.93
2023-04-09T13:37:09.323Z,99909.50
2023-04-09T13:39:39.573Z,99911.88
2023-04-09T13:42:13.641Z,99913.42
2023-04-09T13:44:45.017Z,99907.84
2023-04-09T13:47:16.400Z,99912.30
2023-04-09T13:49:46.310Z,99910.94
2023-04-09T13:52:14.528Z,99914.77
2023-04-09T13:54:42.591Z,99922.29
2023-04-09T13:57:10.735Z,99933.61
2023-04-09T13:59:38.824Z,99942.86
2023-04-09T14:02:09.581Z,99954.05
2023-04-09T14:04:39.474Z,99966.83
2023-04-09T14:07:08.533Z,99964.73
2023-04-09T14:09:40.158Z,99960.27
2023-04-09T14:12:08.453Z,99967.25
2023-04-09T14:14:37.847Z,99963.83
2023-04-09T14:17:07.684Z,99964.69
2023-04-09T14:19:36.863Z,99968.08
2023-04-09T14:22:15.904Z,99967.05
2023-04-09T14:24:44.072Z,99962.81
2023-04-09T14:27:12.580Z,99961.71
2023-04-09T14:29:46.358Z,99961.21
2023-04-09T14:32:23.197Z,99961.27
2023-04-09T14:35:09.603Z,99968.88
2023-04-09T14:37:41.838Z,99966.69
2023-04-09T14:40:14.018Z,99965.05
2023-04-09T14:42:44.091Z,99964.34
2023-04-09T14:45:24.454Z,99962.98
2023-04-09T14:47:55.018Z,99968.58
2023-04-09T14:50:27.516Z,99968.11
2023-04-09T14:52:56.934Z,99969.44
2023-04-09T14:55:44.930Z,99974.89
2023-04-09T14:58:19.694Z,99970.45
2023-04-09T15:00:53.531Z,99972.80
2023-04-09T15:03:23.005Z,99967.73
2023-04-09T15:05:51.692Z,99970.41
2023-04-09T15:08:26.628Z,99971.56
2023-04-09T15:10:59.162Z,99969.93
2023-04-09T15:13:34.769Z,99968.25
2023-04-09T15:16:06.116Z,99967.04
2023-04-09T15:18:39.184Z,99966.35
2023-04-09T15:21:08.310Z,99966.28
2023-04-09T15:23:36.624Z,99966.57
2023-04-09T15:26:09.879Z,99963.32
2023-04-09T15:28:39.195Z,99960.60
2023-04-09T15:31:07.763Z,99956.13
2023-04-09T15:33:55.830Z,99952.48
2023-04-09T15:36:31.610Z,99955.05
2023-04-09T15:39:07.002Z,99955.65
2023-04-09T15:41:35.353Z,99949.44
2023-04-09T15:44:04.126Z,99950.17
2023-04-09T15:46:41.275Z,99947.48
2023-04-09T15:49:10.080Z,99944.84
2023-04-09T15:51:39.014Z,99947.27
2023-04-09T15:54:08.073Z,99944.77
2023-04-09T15:56:40.478Z,99944.41
2023-04-09T15:59:13.954Z,99941.05
2023-04-09T16:01:43.170Z,99941.66
2023-04-09T16:04:12.889Z,99944.42
2023-04-09T16:07:02.487Z,99943.54
2023-04-09T16:09:50.475Z,99943.31
2023-04-09T16:12:25.767Z,99940.16
2023-04-09T16:15:08.172Z,99941.39
2023-04-09T16:17:40.892Z,99938.64
2023-04-09T16:20:11.618Z,99933.16
2023-04-09T16:22:44.995Z,99938.77
2023-04-09T16:25:14.483Z,99939.46
2023-04-09T16:27:48.716Z,99941.42
2023-04-09T16:30:23.862Z,99938.02
2023-04-09T16:32:56.942Z,99940.84
2023-04-09T16:35:26.415Z,99941.25
2023-04-09T16:38:09.659Z,99941.14
2023-04-09T16:40:38.198Z,99946.88
2023-04-09T16:43:11.612Z,99948.95
2023-04-09T16:45:40.373Z,99952.73
2023-04-09T16:48:28.356Z,99954.96
2023-04-09T16:51:01.764Z,99953.73
2023-04-09T16:53:38.833Z,99956.76
2023-04-09T16:56:10.843Z,99955.59
2023-04-09T16:58:39.203Z,99956.30
2023-04-09T17:01:08.482Z,99959.88
2023-04-09T17:03:49.689Z,99960.94
2023-04-09T17:06:18.881Z,99961.02
2023-04-09T17:08:48.025Z,99965.88
2023-04-09T17:11:17.256Z,99965.84
2023-04-09T17:13:51.761Z,99965.69
2023-04-09T17:16:24.987Z,99968.72
2023-04-09T17:18:53.331Z,99967.83
2023-04-09T17:21:27.425Z,99969.00
2023-04-09T17:24:04.370Z,99973.83
2023-04-09T17:26:34.317Z,99976.32
2023-04-09T17:29:03.610Z,99979.34
2023-04-09T17:31:32.015Z,99979.64
2023-04-09T17:34:19.614Z,99980.37
2023-04-09T17:36:50.422Z,99983.99
2023-04-09T17:39:25.490Z,99981.88
2023-04-09T17:41:56.592Z,99985.75
2023-04-09T17:44:38.450Z,99986.27
2023-04-09T17:47:12.455Z,99989.95
2023-04-09T17:49:42.639Z,99993.98
2023-04-09T17:52:14.877Z,99998.36
2023-04-09T17:54:46.753Z,99999.10
2023-04-09T17:57:15.678Z,100001.22
2023-04-09T17:59:49.088Z,100001.52
2023-04-09T18:02:17.653Z,100005.45
2023-04-09T18:04:53.348Z,100008.01
2023-04-09T18:07:22.873Z,100006.90
2023-04-09T18:09:52.995Z,100009.05
2023-04-09T18:12:21.824Z,100008.21
2023-04-09T18:14:59.485Z,100011.64
2023-04-09T18:17:32.607Z,100009.77
2023-04-09T18:20:01.429Z,100006.61
2023-04-09T18:22:29.872Z,100007.64
2023-04-09T18:24:59.919Z,100013.87
2023-04-09T18:27:29.503Z,100012.25
2023-04-09T18:29:59.426Z,100012.31
2023-04-09T18:32:38.982Z,100009.40
2023-04-09T18:35:07.523Z,100007.31
2023-04-09T18:37:36.847Z,100008.48
2023-04-09T18:40:18.836Z,100013.09
2023-04-09T18:42:54.268Z,100017.25
2023-04-09T18:45:22.632Z,100015.80
2023-04-09T18:47:52.402Z,100013.88
2023-04-09T18:50:27.383Z,100013.95
2023-04-09T18:52:56.812Z,100015.05
2023-04-09T18:55:38.081Z,100013.73
2023-04-09T18:58:12.862Z,100010.81
2023-04-09T19:00:41.958Z,100013.98
2023-04-09T19:03:10.499Z,100012.42
2023-04-09T19:05:40.296Z,100009.84
2023-04-09T19:08:08.400Z,100012.80
2023-04-09T19:10:36.674Z,100012.96
2023-04-09T19:13:05.479Z,100012.06
2023-04-09T19:15:33.868Z,100009.18
2023-04-09T19:18:02.065Z,100012.23
2023-04-09T19:20:30.612Z,100014.11
2023-04-09T19:22:59.409Z,100013.06
2023-04-09T19:25:31.472Z,100006.19
2023-04-09T19:27:59.486Z,100010.14
2023-04-09T19:30:27.718Z,100005.91
2023-04-09T19:33:09.560Z,100006.10
2023-04-09T19:35:40.788Z,100011.48
2023-04-09T19:38:14.979Z,100008.55
2023-04-09T19:40:45.491Z,100007.52
2023-04-09T19:43:13.893Z,100009.98
2023-04-09T19:45:44.486Z,100011.89
2023-04-09T19:48:12.879Z,100006.31
2023-04-09T19:50:48.565Z,100004.66
2023-04-09T19:53:16.944Z,100007.25
2023-04-09T19:55:45.108Z,100004.55
2023-04-09T19:58:14.238Z,100002.73
2023-04-09T20:00:42.528Z,100002.92
2023-04-09T20:03:10.962Z,100000.95
2023-04-09T20:05:39.922Z,100004.60
2023-04-09T20:08:11.808Z,100003.20
2023-04-09T20:10:46.487Z,100003.85
2023-04-09T20:13:17.674Z,100003.45
2023-04-09T20:15:45.724Z,100004.79
2023-04-09T20:18:20.490Z,100007.66
2023-04-09T20:20:52.096Z,100004.64
2023-04-09T20:23:20.221Z,100006.21
2023-04-09T20:25:56.032Z,100003.53
2023-04-09T20:28:24.896Z,100000.31
2023-04-09T20:30:53.383Z,99998.30
2023-04-09T20:33:21.725Z,100002.48
2023-04-09T20:35:50.503Z,99998.70
2023-04-09T20:38:20.666Z,99997.80
2023-04-09T20:40:52.801Z,99997.45
2023-04-09T20:43:21.445Z,99996.08
2023-04-09T20:45:53.194Z,99996.39
2023-04-09T20:48:21.954Z,99996.19
2023-04-09T20:50:49.950Z,99999.11
2023-04-09T20:53:18.295Z,99998.50
2023-04-09T20:55:46.582Z,100000.23
2023-04-09T20:58:21.610Z,99998.53
2023-04-09T21:00:49.696Z,100001.17
2023-04-09T21:03:18.792Z,100000.13
2023-04-09T21:05:48.633Z,100001.73
2023-04-09T21:08:17.723Z,100000.72
2023-04-09T21:10:46.010Z,100000.23
2023-04-09T21:13:16.787Z,100002.87
2023-04-09T21:15:48.848Z,99999.34
2023-04-09T21:18:17.132Z,99999.64
2023-04-09T21:20:51.732Z,100003.95
2023-04-09T21:23:25.670Z,99997.56
2023-04-09T21:25:53.933Z,99998.75
2023-04-09T21:28:22.263Z,100000.80
2023-04-09T21:30:52.630Z,100004.33
2023-04-09T21:33:20.696Z,100000.18
2023-04-09T21:35:56.764Z,100000.26
2023-04-09T21:38:24.859Z,99999.29
2023-04-09T21:40:53.061Z,100002.00
2023-04-09T21:43:21.324Z,99996.48
2023-04-09T21:45:49.588Z,99999.83
2023-04-09T21:48:18.260Z,99998.64
2023-04-09T21:50:46.470Z,99999.85
2023-04-09T21:53:15.729Z,100001.06
2023-04-09T21:55:44.708Z,100001.23
2023-04-09T21:58:12.991Z,100005.55
2023-04-09T22:00:41.477Z,100001.70
2023-04-09T22:03:09.994Z,100003.98
2023-04-09T22:05:38.378Z,100000.36
2023-04-09T22:08:07.485Z,100001.82
2023-04-09T22:10:35.839Z,99998.37
2023-04-09T22:13:11.098Z,99997.45
2023-04-09T22:15:42.088Z,99997.94
2023-04-09T22:18:10.215Z,100001.23
2023-04-09T22:20:42.577Z,99998.38
2023-04-09T22:23:11.023Z,100000.99
2023-04-09T22:25:39.055Z,100000.62
2023-04-09T22:28:10.974Z,99998.30
2023-04-09T22:30:41.136Z,100001.59
2023-04-09T22:33:09.970Z,99998.44
2023-04-09T22:35:38.066Z,99999.00
2023-04-09T22:38:07.178Z,99996.50
2023-04-09T22:40:35.542Z,99993.95
2023-04-09T22:43:03.564Z,99995.41
2023-04-09T22:45:32.535Z,99994.25
2023-04-09T22:48:00.897Z,99992.67
2023-04-09T22:50:29.639Z,99993.64
2023-04-09T22:52:57.949Z,99995.71
2023-04-09T22:55:26.495Z,99997.02
2023-04-09T22:57:58.108Z,99997.02
2023-04-09T23:00:26.378Z,99994.91
2023-04-09T23:02:54.876Z,99992.16
2023-04-09T23:05:23.448Z,99992.73
2023-04-09T23:07:51.570Z,99994.35
2023-04-09T23:10:19.576Z,99996.02
2023-04-09T23:12:58.783Z,99993.67
2023-04-09T23:15:27.543Z,99996.02
2023-04-09T23:17:56.344Z,99993.46
2023-04-09T23:20:24.599Z,99999.21
2023-04-09T23:22:53.196Z,99993.50
2023-04-09T23:25:25.776Z,99991.59
2023-04-09T23:27:54.318Z,99989.42
2023-04-09T23:30:23.977Z,99984.32
2023-04-09T23:32:53.880Z,99979.55
2023-04-09T23:35:23.685Z,99980.70
2023-04-09T23:37:55.073Z,99974.96
2023-04-09T23:40:23.126Z,99975.63
2023-04-09T23:42:51.309Z,99975.97
2023-04-09T23:45:24.447Z,99977.88
2023-04-09T23:47:53.186Z,99978.58
2023-04-09T23:50:24.351Z,99975.83
2023-04-09T23:52:53.469Z,99977.47
2023-04-09T23:55:21.683Z,99976.46
2023-04-09T23:57:49.713Z,99977.02
